Saint Paul, Canada
Current Conditions -  °F | °C
As of 2:00 AM on Friday 31 Oct 2014 (Local Time) from CYOD Reporting Station
Overcast Overcast  
Wind Chill: 25°   Ceiling: 1200
Heat Index: 34°   Visibility: 15mi
Dew Point: 28°   Wind: 12mph
Humidity: 81%   Direction: 130°SE
Pressure: 29.99"   Gusts: NA
Location:  53.98°N, 111.28°W
Report Text: CYOD 310800Z 13010KT 15SM OVC012 01/M02 A2999 RMK SC8 SLP184
Loading
Personal Weather Stations






























Interactive Weather Map
Tropical Storm Tracking
New forecast layout! Learn more

10-Day Weather Forecast

Advertisements
Track Severe Weather on mobile